Cosco Nagoya — 3ESJ8 — position and weather

sailwx.info

Track history (hours):
 
Tides and Currents Weather Stations Pressure Air Temp Water Temp Dewpoint Dewpoint Depression Visibility Wind Speed Wind Dir Waves Ship Positions

Cosco Nagoya

Last reported at 2018-May-23 00:51 UTC. Time now 2018-May-25 22:26 UTC.
Position N 16°17' E 073°05'.

Length 260 m; draft 8 m.

Type: Cargo ship. MMSI: 370320000.

Date/timePositionNaut miles runAvg speedWind from/ knotsBaromVisibWave heightAir tempDewpointWater temp
2018-May-23 00:51N 16°17' E 073°05'615.5
2018-May-23 00:30N 16°22' E 073°03'815.4
2018-May-23 00:00N 16°29' E 073°01'915.1
2018-May-22 23:25N 16°38' E 072°58'614.9
2018-May-22 23:00N 16°44' E 072°56'1015.1
2018-May-22 22:23N 16°53' E 072°53'814.8
2018-May-22 21:52N 17°00' E 072°51'1514.8
2018-May-22 20:53N 17°14' E 072°47'614.8
2018-May-22 20:30N 17°19' E 072°45'714.7
2018-May-22 20:00N 17°26' E 072°43'814.7
2018-May-22 19:27N 17°34' E 072°41'715.0
2018-May-22 19:00N 17°41' E 072°40'1015.1
2018-May-22 18:22N 17°51' E 072°38'615.4
2018-May-22 18:00N 17°56' E 072°37'815.3
2018-May-22 17:30N 18°04' E 072°35'715.1
2018-May-22 17:00N 18°11' E 072°35'815.3
2018-May-22 16:30N 18°19' E 072°34'815.0
2018-May-22 16:00N 18°26' E 072°33'715.0
2018-May-22 15:30N 18°33' E 072°31'1015.1
2018-May-22 14:51N 18°43' E 072°31'515.1
2018-May-22 14:30N 18°48' E 072°31'714.7
2018-May-22 14:00N 18°56' E 072°30'814.3
2018-May-22 13:26N 19°04' E 072°28'614.0
2018-May-22 12:59N 19°10' E 072°27'613.5
2018-May-22 12:30N 19°16' E 072°26'713.0
2018-May-22 11:56N 19°24' E 072°25'612.9
2018-May-22 11:30N 19°29' E 072°26'913.1
2018-May-22 10:49N 19°38' E 072°26'413.7
2018-May-22 10:30N 19°42' E 072°25'714.3
2018-May-22 10:00N 19°47' E 072°19'714.8
2018-May-22 09:30N 19°50' E 072°12'714.8
2018-May-22 09:00N 19°52' E 072°04'714.7
2018-May-22 08:30N 19°54' E 071°57'714.3
2018-May-22 08:00N 19°55' E 071°49'714.4
2018-May-22 07:30N 19°55' E 071°41'510.7
2018-May-22 07:00N 19°59' E 071°38'814.8
2018-May-22 06:30N 20°06' E 071°38'714.8
2018-May-22 06:00N 20°14' E 071°38'714.8
2018-May-22 05:30N 20°21' E 071°38'714.8
2018-May-22 05:00N 20°28' E 071°36'715.0
2018-May-22 04:30N 20°36' E 071°37'714.7
2018-May-22 04:00N 20°43' E 071°37'713.5
2018-May-22 03:30N 20°50' E 071°34'611.7
2018-May-22 02:59N 20°54' E 071°30'1 1.5
2018-May-22 02:30N 20°55' E 071°31'0 0.0
2018-May-22 01:50N 20°55' E 071°31'0 0.0
2018-May-22 01:26N 20°55' E 071°31'0 0.0
2018-May-22 00:56N 20°55' E 071°31'0 0.0
2018-May-22 00:26N 20°55' E 071°31'0 0.0
2018-May-21 23:56N 20°55' E 071°31'0 0.0
2018-May-21 23:26N 20°55' E 071°31'0 0.0
2018-May-21 20:50N 20°55' E 071°31'0 0.0
2018-May-21 20:26N 20°55' E 071°31'0 0.0
2018-May-21 19:56N 20°55' E 071°31'0 0.0
2018-May-21 19:21N 20°55' E 071°31'1 1.8
2018-May-21 19:00N 20°55' E 071°30'3 5.3
2018-May-21 18:30N 20°52' E 071°30'2 3.8
2018-May-21 18:00N 20°50' E 071°32'4 8.4
2018-May-21 17:29N 20°48' E 071°36'510.3
2018-May-21 17:00N 20°44' E 071°37'714.2
2018-May-21 16:30N 20°37' E 071°37'815.2
2018-May-21 15:59N 20°29' E 071°37'816.0
2018-May-21 15:30N 20°21' E 071°38'916.2
2018-May-21 14:58N 20°12' E 071°37'816.8
2018-May-21 14:30N 20°05' E 071°39'916.0
2018-May-21 13:58N 19°59' E 071°46'716.2
2018-May-21 13:30N 19°56' E 071°53'815.9
2018-May-21 13:00N 19°54' E 072°01'815.3
2018-May-21 12:30N 19°52' E 072°09'815.5
2018-May-21 12:00N 19°50' E 072°17'815.8
2018-May-21 11:29N 19°45' E 072°24'816.3
2018-May-21 11:00N 19°38' E 072°28'2017.4
2018-May-21 09:52N 19°19' E 072°28'617.2
2018-May-21 09:30N 19°12' E 072°29'918.3
2018-May-21 09:00N 19°03' E 072°30'918.4
2018-May-21 08:30N 18°54' E 072°33'1016.0
2018-May-21 07:54N 18°50' E 072°42'14 0.5
2018-May-20 02:22N 18°56' E 072°55'411.0
2018-May-20 01:58N 18°54' E 072°51'6 8.9
2018-May-20 01:19N 18°50' E 072°46'310.7
2018-May-20 01:00N 18°50' E 072°43'6 8.6
2018-May-20 00:18N 18°48' E 072°37'3 8.3
2018-May-19 23:59N 18°46' E 072°37'1 0.8
2018-May-19 23:17N 18°45' E 072°37'0 0.0
2018-May-19 16:47N 18°45' E 072°38'0 0.0
2018-May-19 15:53N 18°45' E 072°37'0 0.0
2018-May-19 15:17N 18°45' E 072°37'0 0.0
2018-May-19 14:41N 18°45' E 072°37'0 0.0
2018-May-19 14:29N 18°45' E 072°37'0 0.0
2018-May-19 13:59N 18°45' E 072°37'0 0.0
2018-May-19 13:29N 18°45' E 072°37'0 0.1
2018-May-19 12:59N 18°45' E 072°37'0 0.1
2018-May-19 12:29N 18°45' E 072°38'0 0.1
2018-May-19 11:59N 18°45' E 072°38'0 0.1
2018-May-19 11:23N 18°45' E 072°38'0 0.0
2018-May-19 10:59N 18°45' E 072°38'0 0.0
2018-May-18 15:29N 18°45' E 072°37'0 0.0
2018-May-18 14:59N 18°45' E 072°37'0 0.0
2018-May-18 14:17N 18°45' E 072°37'0 0.0
2018-May-18 13:59N 18°45' E 072°37'300 9.0
2018-May-17 04:45N 13°60' E 074°13'  
Track history (hours):
 
Tides and Currents Weather Stations Pressure Air Temp Water Temp Dewpoint Dewpoint Depression Visibility Wind Speed Wind Dir Waves Ship Positions

Cosco Nagoya

Last reported at 2018-May-23 00:51 UTC. Time now 2018-May-25 22:26 UTC.
Position N 16°17' E 073°05'.

Length 260 m; draft 8 m.

Type: Cargo ship. MMSI: 370320000.

Date/timePositionNaut miles runAvg speedWind from/ knotsBaromVisibWave heightAir tempDewpointWater temp
2018-May-23 00:51N 16°17' E 073°05'615.5
2018-May-23 00:30N 16°22' E 073°03'815.4
2018-May-23 00:00N 16°29' E 073°01'915.1
2018-May-22 23:25N 16°38' E 072°58'614.9
2018-May-22 23:00N 16°44' E 072°56'1015.1
2018-May-22 22:23N 16°53' E 072°53'814.8
2018-May-22 21:52N 17°00' E 072°51'1514.8
2018-May-22 20:53N 17°14' E 072°47'614.8
2018-May-22 20:30N 17°19' E 072°45'714.7
2018-May-22 20:00N 17°26' E 072°43'814.7
2018-May-22 19:27N 17°34' E 072°41'715.0
2018-May-22 19:00N 17°41' E 072°40'1015.1
2018-May-22 18:22N 17°51' E 072°38'615.4
2018-May-22 18:00N 17°56' E 072°37'815.3
2018-May-22 17:30N 18°04' E 072°35'715.1
2018-May-22 17:00N 18°11' E 072°35'815.3
2018-May-22 16:30N 18°19' E 072°34'815.0
2018-May-22 16:00N 18°26' E 072°33'715.0
2018-May-22 15:30N 18°33' E 072°31'1015.1
2018-May-22 14:51N 18°43' E 072°31'515.1
2018-May-22 14:30N 18°48' E 072°31'714.7
2018-May-22 14:00N 18°56' E 072°30'814.3
2018-May-22 13:26N 19°04' E 072°28'614.0
2018-May-22 12:59N 19°10' E 072°27'613.5
2018-May-22 12:30N 19°16' E 072°26'713.0
2018-May-22 11:56N 19°24' E 072°25'612.9
2018-May-22 11:30N 19°29' E 072°26'913.1
2018-May-22 10:49N 19°38' E 072°26'413.7
2018-May-22 10:30N 19°42' E 072°25'714.3
2018-May-22 10:00N 19°47' E 072°19'714.8
2018-May-22 09:30N 19°50' E 072°12'714.8
2018-May-22 09:00N 19°52' E 072°04'714.7
2018-May-22 08:30N 19°54' E 071°57'714.3
2018-May-22 08:00N 19°55' E 071°49'714.4
2018-May-22 07:30N 19°55' E 071°41'510.7
2018-May-22 07:00N 19°59' E 071°38'814.8
2018-May-22 06:30N 20°06' E 071°38'714.8
2018-May-22 06:00N 20°14' E 071°38'714.8
2018-May-22 05:30N 20°21' E 071°38'714.8
2018-May-22 05:00N 20°28' E 071°36'715.0
2018-May-22 04:30N 20°36' E 071°37'714.7
2018-May-22 04:00N 20°43' E 071°37'713.5
2018-May-22 03:30N 20°50' E 071°34'611.7
2018-May-22 02:59N 20°54' E 071°30'1 1.5
2018-May-22 02:30N 20°55' E 071°31'0 0.0
2018-May-22 01:50N 20°55' E 071°31'0 0.0
2018-May-22 01:26N 20°55' E 071°31'0 0.0
2018-May-22 00:56N 20°55' E 071°31'0 0.0
2018-May-22 00:26N 20°55' E 071°31'0 0.0
2018-May-21 23:56N 20°55' E 071°31'0 0.0
2018-May-21 23:26N 20°55' E 071°31'0 0.0
2018-May-21 20:50N 20°55' E 071°31'0 0.0
2018-May-21 20:26N 20°55' E 071°31'0 0.0
2018-May-21 19:56N 20°55' E 071°31'0 0.0
2018-May-21 19:21N 20°55' E 071°31'1 1.8
2018-May-21 19:00N 20°55' E 071°30'3 5.3
2018-May-21 18:30N 20°52' E 071°30'2 3.8
2018-May-21 18:00N 20°50' E 071°32'4 8.4
2018-May-21 17:29N 20°48' E 071°36'510.3
2018-May-21 17:00N 20°44' E 071°37'714.2
2018-May-21 16:30N 20°37' E 071°37'815.2
2018-May-21 15:59N 20°29' E 071°37'816.0
2018-May-21 15:30N 20°21' E 071°38'916.2
2018-May-21 14:58N 20°12' E 071°37'816.8
2018-May-21 14:30N 20°05' E 071°39'916.0
2018-May-21 13:58N 19°59' E 071°46'716.2
2018-May-21 13:30N 19°56' E 071°53'815.9
2018-May-21 13:00N 19°54' E 072°01'815.3
2018-May-21 12:30N 19°52' E 072°09'815.5
2018-May-21 12:00N 19°50' E 072°17'815.8
2018-May-21 11:29N 19°45' E 072°24'816.3
2018-May-21 11:00N 19°38' E 072°28'2017.4
2018-May-21 09:52N 19°19' E 072°28'617.2
2018-May-21 09:30N 19°12' E 072°29'918.3
2018-May-21 09:00N 19°03' E 072°30'918.4
2018-May-21 08:30N 18°54' E 072°33'1016.0
2018-May-21 07:54N 18°50' E 072°42'14 0.5
2018-May-20 02:22N 18°56' E 072°55'411.0
2018-May-20 01:58N 18°54' E 072°51'6 8.9
2018-May-20 01:19N 18°50' E 072°46'310.7
2018-May-20 01:00N 18°50' E 072°43'6 8.6
2018-May-20 00:18N 18°48' E 072°37'3 8.3
2018-May-19 23:59N 18°46' E 072°37'1 0.8
2018-May-19 23:17N 18°45' E 072°37'0 0.0
2018-May-19 16:47N 18°45' E 072°38'0 0.0
2018-May-19 15:53N 18°45' E 072°37'0 0.0
2018-May-19 15:17N 18°45' E 072°37'0 0.0
2018-May-19 14:41N 18°45' E 072°37'0 0.0
2018-May-19 14:29N 18°45' E 072°37'0 0.0
2018-May-19 13:59N 18°45' E 072°37'0 0.0
2018-May-19 13:29N 18°45' E 072°37'0 0.1
2018-May-19 12:59N 18°45' E 072°37'0 0.1
2018-May-19 12:29N 18°45' E 072°38'0 0.1
2018-May-19 11:59N 18°45' E 072°38'0 0.1
2018-May-19 11:23N 18°45' E 072°38'0 0.0
2018-May-19 10:59N 18°45' E 072°38'0 0.0
2018-May-18 15:29N 18°45' E 072°37'0 0.0
2018-May-18 14:59N 18°45' E 072°37'0 0.0
2018-May-18 14:17N 18°45' E 072°37'0 0.0
2018-May-18 13:59N 18°45' E 072°37'300 9.0
2018-May-17 04:45N 13°60' E 074°13'  

Dump ship's entire track history